createdAt,value
2019-04-07T00:00:14.329Z,95131.20
2019-04-07T00:02:45.299Z,95132.13
2019-04-07T00:05:17.306Z,95135.12
2019-04-07T00:07:49.491Z,95139.59
2019-04-07T00:10:21.879Z,95132.76
2019-04-07T00:12:51.070Z,95137.20
2019-04-07T00:15:24.180Z,95130.64
2019-04-07T00:17:53.371Z,95136.27
2019-04-07T00:20:26.849Z,95137.53
2019-04-07T00:22:56.074Z,95139.28
2019-04-07T00:25:34.306Z,95141.31
2019-04-07T00:28:04.033Z,95139.33
2019-04-07T00:30:39.990Z,95140.25
2019-04-07T00:33:09.315Z,95135.75
2019-04-07T00:35:38.919Z,95133.57
2019-04-07T00:38:09.733Z,95132.25
2019-04-07T00:40:40.714Z,95134.01
2019-04-07T00:43:13.624Z,95132.22
2019-04-07T00:45:42.909Z,95136.14
2019-04-07T00:48:12.285Z,95141.47
2019-04-07T00:50:41.452Z,95136.97
2019-04-07T00:53:11.010Z,95133.92
2019-04-07T00:55:40.843Z,95141.36
2019-04-07T00:58:10.200Z,95130.90
2019-04-07T01:00:40.665Z,95140.84
2019-04-07T01:03:11.546Z,95130.34
2019-04-07T01:05:42.799Z,95137.75
2019-04-07T01:08:14.226Z,95138.98
2019-04-07T01:10:43.406Z,95133.80
2019-04-07T01:13:12.487Z,95131.73
2019-04-07T01:15:41.840Z,93693.87
2019-04-07T01:18:13.134Z,95129.13
2019-04-07T01:20:46.923Z,95135.45
2019-04-07T01:23:18.194Z,95129.27
2019-04-07T01:25:58.490Z,95132.61
2019-04-07T01:28:36.281Z,95133.22
2019-04-07T01:31:05.767Z,95135.05
2019-04-07T01:33:40.919Z,95129.61
2019-04-07T01:36:13.598Z,95136.02
2019-04-07T01:38:46.080Z,95130.58
2019-04-07T01:41:29.466Z,95126.27
2019-04-07T01:44:06.698Z,95127.05
2019-04-07T01:46:56.154Z,95126.85
2019-04-07T01:49:36.389Z,95124.75
2019-04-07T01:52:21.100Z,95125.52
2019-04-07T01:55:18.091Z,95122.23
2019-04-07T01:58:07.853Z,95123.11
2019-04-07T02:00:56.593Z,95130.05
2019-04-07T02:03:39.893Z,95126.11
2019-04-07T02:06:17.876Z,95136.48
2019-04-07T02:09:04.970Z,95128.27
2019-04-07T02:11:51.905Z,95122.78
2019-04-07T02:14:35.522Z,95112.81
2019-04-07T02:17:31.749Z,95111.43
2019-04-07T02:20:10.295Z,95103.58
2019-04-07T02:22:47.697Z,95100.83
2019-04-07T02:25:42.758Z,95105.97
2019-04-07T02:28:29.845Z,95106.12
2019-04-07T02:31:23.964Z,95106.88
2019-04-07T02:34:11.785Z,95110.75
2019-04-07T02:36:48.370Z,95107.23
2019-04-07T02:39:42.426Z,95116.00
2019-04-07T02:42:32.224Z,95112.43
2019-04-07T02:45:36.619Z,95116.34
2019-04-07T02:48:13.856Z,95122.98
2019-04-07T02:50:48.498Z,95123.31
2019-04-07T02:53:45.489Z,95122.69
2019-04-07T02:56:26.911Z,95119.27
2019-04-07T02:59:14.575Z,95118.13
2019-04-07T03:02:08.160Z,95119.45
2019-04-07T03:04:56.649Z,95120.69
2019-04-07T03:07:47.829Z,95125.00
2019-04-07T03:10:33.391Z,95120.31
2019-04-07T03:13:19.049Z,95114.98
2019-04-07T03:15:55.013Z,95114.83
2019-04-07T03:18:52.842Z,95113.96
2019-04-07T03:21:44.680Z,95117.45
2019-04-07T03:24:33.520Z,95130.66
2019-04-07T03:27:24.047Z,95127.49
2019-04-07T03:30:06.022Z,95127.81
2019-04-07T03:33:13.229Z,95128.38
2019-04-07T03:35:56.842Z,95134.64
2019-04-07T03:38:43.002Z,95136.30
2019-04-07T03:41:34.932Z,95137.02
2019-04-07T03:44:18.619Z,95137.45
2019-04-07T03:47:03.612Z,95141.45
2019-04-07T03:49:55.065Z,95152.24
2019-04-07T03:53:01.716Z,95155.77
2019-04-07T03:55:54.637Z,95160.95
2019-04-07T03:59:01.852Z,95156.27
2019-04-07T04:01:48.108Z,95164.66
2019-04-07T04:04:37.800Z,95164.84
2019-04-07T04:07:22.398Z,95165.70
2019-04-07T04:10:03.398Z,95168.77
2019-04-07T04:12:53.023Z,95160.03
2019-04-07T04:15:29.765Z,95161.52
2019-04-07T04:17:59.171Z,95164.33
2019-04-07T04:20:30.258Z,95160.48
2019-04-07T04:22:59.759Z,95168.00
2019-04-07T04:25:34.562Z,95172.09
2019-04-07T04:28:07.820Z,95166.25
2019-04-07T04:30:37.133Z,95173.34
2019-04-07T04:33:06.414Z,95170.61
2019-04-07T04:35:35.558Z,95175.67
2019-04-07T04:38:04.602Z,95170.93
2019-04-07T04:40:33.852Z,95184.53
2019-04-07T04:43:02.946Z,95186.93
2019-04-07T04:45:34.127Z,95189.66
2019-04-07T04:48:05.601Z,95192.48
2019-04-07T04:50:35.611Z,95196.59
2019-04-07T04:53:04.699Z,95194.70
2019-04-07T04:55:35.045Z,95196.92
2019-04-07T04:58:04.494Z,95200.63
2019-04-07T05:00:34.402Z,95199.69
2019-04-07T05:03:04.638Z,95200.52
2019-04-07T05:05:35.742Z,95202.44
2019-04-07T05:08:05.628Z,95202.30
2019-04-07T05:10:35.851Z,95201.33
2019-04-07T05:13:05.534Z,95201.65
2019-04-07T05:15:35.129Z,95207.53
2019-04-07T05:18:10.860Z,95211.64
2019-04-07T05:20:43.217Z,95212.22
2019-04-07T05:23:14.106Z,95215.51
2019-04-07T05:25:43.879Z,95215.44
2019-04-07T05:28:15.390Z,95235.25
2019-04-07T05:30:48.067Z,95220.34
2019-04-07T05:33:17.950Z,95220.69
2019-04-07T05:35:46.992Z,95222.88
2019-04-07T05:38:16.089Z,95224.11
2019-04-07T05:40:45.166Z,95225.27
2019-04-07T05:43:16.174Z,95230.11
2019-04-07T05:45:45.544Z,95238.11
2019-04-07T05:48:19.307Z,95241.06
2019-04-07T05:50:48.808Z,95245.42
2019-04-07T05:53:17.895Z,95254.13
2019-04-07T05:55:47.558Z,95252.95
2019-04-07T05:58:16.815Z,95274.92
2019-04-07T06:00:48.607Z,95256.98
2019-04-07T06:03:17.802Z,95253.60
2019-04-07T06:05:48.253Z,95257.64
2019-04-07T06:08:29.528Z,95263.09
2019-04-07T06:10:57.869Z,95257.98
2019-04-07T06:13:26.891Z,95256.14
2019-04-07T06:15:57.531Z,95255.36
2019-04-07T06:18:32.244Z,95255.53
2019-04-07T06:20:58.519Z,95259.42
2019-04-07T06:23:30.393Z,95261.98
2019-04-07T06:25:59.458Z,95263.19
2019-04-07T06:28:31.755Z,95262.16
2019-04-07T06:31:03.162Z,95262.82
2019-04-07T06:33:32.447Z,95258.24
2019-04-07T06:36:01.536Z,93797.24
2019-04-07T06:38:34.935Z,95260.17
2019-04-07T06:41:08.657Z,95264.90
2019-04-07T06:43:39.854Z,95261.09
2019-04-07T06:46:30.635Z,95268.55
2019-04-07T06:49:13.058Z,95265.52
2019-04-07T06:52:04.642Z,95264.41
2019-04-07T06:54:39.929Z,95262.69
2019-04-07T06:57:21.785Z,95265.64
2019-04-07T07:00:12.514Z,95264.97
2019-04-07T07:03:11.621Z,95262.38
2019-04-07T07:06:05.741Z,95261.48
2019-04-07T07:08:59.075Z,95256.77
2019-04-07T07:12:02.130Z,95255.63
2019-04-07T07:14:54.979Z,95254.50
2019-04-07T07:17:37.870Z,95258.08
2019-04-07T07:20:45.208Z,95257.98
2019-04-07T07:23:18.743Z,95260.16
2019-04-07T07:25:48.593Z,95261.00
2019-04-07T07:28:18.223Z,95257.26
2019-04-07T07:30:51.881Z,95255.09
2019-04-07T07:33:23.474Z,95261.42
2019-04-07T07:35:52.741Z,95260.43
2019-04-07T07:38:27.736Z,95255.95
2019-04-07T07:41:00.094Z,95264.87
2019-04-07T07:43:31.891Z,95265.06
2019-04-07T07:46:05.758Z,95264.77
2019-04-07T07:48:38.015Z,95267.97
2019-04-07T07:51:12.945Z,95266.23
2019-04-07T07:53:41.579Z,95269.34
2019-04-07T07:56:13.611Z,95274.22
2019-04-07T07:58:41.512Z,95274.30
2019-04-07T08:01:13.845Z,95274.15
2019-04-07T08:03:51.743Z,95277.84
2019-04-07T08:06:22.712Z,95281.64
2019-04-07T08:08:52.585Z,95287.94
2019-04-07T08:11:21.918Z,95285.45
2019-04-07T08:13:51.328Z,95283.64
2019-04-07T08:16:29.484Z,95284.38
2019-04-07T08:18:59.578Z,95278.95
2019-04-07T08:21:29.131Z,95282.40
2019-04-07T08:23:59.038Z,95287.45
2019-04-07T08:26:28.925Z,95289.77
2019-04-07T08:29:03.246Z,95290.80
2019-04-07T08:31:33.757Z,95289.97
2019-04-07T08:34:05.564Z,95287.91
2019-04-07T08:36:35.754Z,95283.23
2019-04-07T08:39:20.318Z,95287.98
2019-04-07T08:41:42.228Z,95304.25
2019-04-07T08:44:12.645Z,95294.48
2019-04-07T08:46:44.206Z,95295.36
2019-04-07T08:49:14.720Z,95295.64
2019-04-07T08:51:43.919Z,95296.02
2019-04-07T08:54:23.884Z,95294.16
2019-04-07T08:56:56.303Z,95298.52
2019-04-07T08:59:25.918Z,95301.91
2019-04-07T09:01:55.797Z,95303.26
2019-04-07T09:04:28.424Z,95302.58
2019-04-07T09:07:00.685Z,95305.55
2019-04-07T09:09:34.084Z,95309.91
2019-04-07T09:11:59.509Z,95302.31
2019-04-07T09:14:29.510Z,95301.15
2019-04-07T09:17:32.186Z,95305.45
2019-04-07T09:20:27.482Z,95309.91
2019-04-07T09:23:09.195Z,95306.39
2019-04-07T09:26:02.896Z,95311.56
2019-04-07T09:28:53.426Z,95306.72
2019-04-07T09:31:43.470Z,95309.59
2019-04-07T09:34:25.153Z,95313.20
2019-04-07T09:37:13.165Z,95315.41
2019-04-07T09:40:05.564Z,95309.77
2019-04-07T09:43:03.101Z,95314.87
2019-04-07T09:45:51.864Z,95321.27
2019-04-07T09:48:42.996Z,95318.83
2019-04-07T09:51:52.857Z,95335.12
2019-04-07T09:54:36.923Z,95331.39
2019-04-07T09:57:40.829Z,95336.55
2019-04-07T10:00:35.302Z,95336.00
2019-04-07T10:03:23.379Z,95339.44
2019-04-07T10:06:20.446Z,95340.64
2019-04-07T10:09:14.581Z,95338.86
2019-04-07T10:12:00.401Z,95341.23
2019-04-07T10:14:48.846Z,95343.67
2019-04-07T10:17:49.602Z,95347.11
2019-04-07T10:20:36.878Z,95348.73
2019-04-07T10:23:28.811Z,95344.78
2019-04-07T10:26:24.689Z,95342.27
2019-04-07T10:29:04.619Z,95346.84
2019-04-07T10:31:51.879Z,95340.16
2019-04-07T10:34:38.832Z,95338.50
2019-04-07T10:37:32.213Z,95334.69
2019-04-07T10:40:26.495Z,95344.68
2019-04-07T10:43:19.607Z,95345.20
2019-04-07T10:46:11.217Z,95341.91
2019-04-07T10:49:00.281Z,95340.93
2019-04-07T10:51:51.343Z,95342.66
2019-04-07T10:54:43.810Z,95339.73
2019-04-07T10:57:24.915Z,95339.95
2019-04-07T11:00:17.977Z,95346.02
2019-04-07T11:02:57.191Z,95340.39
2019-04-07T11:05:44.782Z,95340.20
2019-04-07T11:08:32.099Z,95338.25
2019-04-07T11:11:23.193Z,95338.45
2019-04-07T11:14:29.445Z,95333.01
2019-04-07T11:17:08.110Z,95331.33
2019-04-07T11:19:45.958Z,95332.59
2019-04-07T11:22:33.783Z,95333.05
2019-04-07T11:25:34.692Z,95331.05
2019-04-07T11:28:24.140Z,95329.70
2019-04-07T11:31:03.869Z,95332.52
2019-04-07T11:33:50.381Z,95326.89
2019-04-07T11:36:27.677Z,95331.30
2019-04-07T11:39:19.223Z,95330.14
2019-04-07T11:41:57.289Z,95326.09
2019-04-07T11:44:37.523Z,95327.00
2019-04-07T11:47:28.689Z,95326.84
2019-04-07T11:50:28.802Z,95331.04
2019-04-07T11:53:11.696Z,95329.86
2019-04-07T11:56:09.896Z,95329.77
2019-04-07T11:58:58.945Z,95332.50
2019-04-07T12:01:56.709Z,95335.47
2019-04-07T12:05:00.013Z,95336.18
2019-04-07T12:08:01.725Z,95272.26
2019-04-07T12:11:06.572Z,95326.66
2019-04-07T12:13:56.763Z,95333.52
2019-04-07T12:16:44.865Z,95331.63
2019-04-07T12:19:36.734Z,95327.16
2019-04-07T12:22:16.066Z,95332.27
2019-04-07T12:25:16.994Z,95329.09
2019-04-07T12:28:06.936Z,95332.38
2019-04-07T12:31:08.589Z,95329.11
2019-04-07T12:33:58.488Z,95330.02
2019-04-07T12:37:03.907Z,95329.14
2019-04-07T12:39:38.955Z,95336.74
2019-04-07T12:42:40.299Z,95334.30
2019-04-07T12:45:31.893Z,95331.34
2019-04-07T12:48:30.670Z,95335.74
2019-04-07T12:51:36.413Z,95332.36
2019-04-07T12:54:31.851Z,95336.49
2019-04-07T12:57:21.957Z,95328.00
2019-04-07T13:00:02.503Z,95327.33
2019-04-07T13:02:51.605Z,95329.08
2019-04-07T13:05:39.200Z,95319.96
2019-04-07T13:08:33.717Z,95323.44
2019-04-07T13:11:38.648Z,95325.73
2019-04-07T13:14:32.401Z,95320.07
2019-04-07T13:17:21.444Z,95325.20
2019-04-07T13:20:22.314Z,95325.23
2019-04-07T13:23:01.827Z,95331.95
2019-04-07T13:25:52.876Z,95341.53
2019-04-07T13:31:31.874Z,95338.48
2019-04-07T13:34:18.683Z,95343.59
2019-04-07T13:37:18.877Z,95338.18
2019-04-07T13:39:59.488Z,95340.91
2019-04-07T13:42:42.830Z,95339.50
2019-04-07T13:45:47.243Z,95342.19
2019-04-07T13:48:41.191Z,95338.31
2019-04-07T13:51:29.582Z,95343.52
2019-04-07T13:54:30.820Z,95347.70
2019-04-07T13:57:12.273Z,95349.34
2019-04-07T13:59:48.877Z,95352.41
2019-04-07T14:02:36.564Z,95350.48
2019-04-07T14:05:14.958Z,95351.31
2019-04-07T14:08:07.117Z,95357.90
2019-04-07T14:11:08.431Z,95358.30
2019-04-07T14:13:44.768Z,95358.86
2019-04-07T14:16:32.319Z,95356.12
2019-04-07T14:19:12.447Z,95366.67
2019-04-07T14:22:03.268Z,95358.84
2019-04-07T14:24:59.084Z,95366.15
2019-04-07T14:27:43.884Z,95365.50
2019-04-07T14:30:20.278Z,95367.53
2019-04-07T14:33:11.192Z,95374.17
2019-04-07T14:35:58.239Z,95368.30
2019-04-07T14:38:56.010Z,95370.41
2019-04-07T14:42:00.980Z,95371.84
2019-04-07T14:44:44.664Z,95373.30
2019-04-07T14:47:29.384Z,95367.92
2019-04-07T14:50:13.069Z,95368.78
2019-04-07T14:52:53.628Z,95367.02
2019-04-07T14:55:45.167Z,95361.72
2019-04-07T14:58:48.457Z,95365.54
2019-04-07T15:01:39.658Z,95366.25
2019-04-07T15:04:08.943Z,95371.17
2019-04-07T15:06:42.357Z,95368.27
2019-04-07T15:09:22.551Z,95367.73
2019-04-07T15:12:15.876Z,95369.51
2019-04-07T15:14:37.507Z,95383.86
2019-04-07T15:17:12.044Z,95371.12
2019-04-07T15:19:44.323Z,95374.89
2019-04-07T15:22:13.481Z,95377.61
2019-04-07T15:24:42.888Z,95375.55
2019-04-07T15:27:17.521Z,95372.81
2019-04-07T15:29:47.143Z,95374.59
2019-04-07T15:32:21.159Z,95376.41
2019-04-07T15:34:51.482Z,95373.50
2019-04-07T15:37:29.259Z,95377.61
2019-04-07T15:40:03.626Z,95370.86
2019-04-07T15:42:40.399Z,95379.25
2019-04-07T15:45:11.212Z,95376.16
2019-04-07T15:47:37.088Z,95376.30
2019-04-07T15:50:11.853Z,95385.58
2019-04-07T15:52:44.310Z,95382.53
2019-04-07T15:55:13.520Z,95377.02
2019-04-07T15:57:44.281Z,95385.45
2019-04-07T16:00:16.439Z,95385.62
2019-04-07T16:02:49.260Z,95391.59
2019-04-07T16:05:17.868Z,95387.59
2019-04-07T16:07:52.754Z,95394.34
2019-04-07T16:10:29.123Z,95392.40
2019-04-07T16:13:00.115Z,95397.73
2019-04-07T16:15:32.202Z,95338.25
2019-04-07T16:18:08.588Z,95403.09
2019-04-07T16:20:40.490Z,95400.19
2019-04-07T16:23:12.805Z,95404.47
2019-04-07T16:25:41.867Z,95406.12
2019-04-07T16:28:15.975Z,95404.95
2019-04-07T16:30:49.008Z,95410.13
2019-04-07T16:33:17.771Z,95413.99
2019-04-07T16:35:55.280Z,95409.62
2019-04-07T16:38:22.625Z,95415.98
2019-04-07T16:40:54.104Z,95417.55
2019-04-07T16:43:26.162Z,95428.84
2019-04-07T16:46:01.755Z,95422.66
2019-04-07T16:48:36.042Z,95427.85
2019-04-07T16:51:06.040Z,95426.92
2019-04-07T16:53:37.931Z,95426.80
2019-04-07T16:56:07.519Z,95426.43
2019-04-07T16:58:39.143Z,95427.01
2019-04-07T17:01:07.785Z,95430.09
2019-04-07T17:03:39.854Z,95428.27
2019-04-07T17:06:11.135Z,95433.50
2019-04-07T17:08:43.401Z,95434.18
2019-04-07T17:11:16.949Z,95431.12
2019-04-07T17:13:47.594Z,95434.55
2019-04-07T17:16:23.926Z,95437.94
2019-04-07T17:18:56.291Z,95446.34
2019-04-07T17:21:29.919Z,95442.97
2019-04-07T17:24:01.395Z,95447.66
2019-04-07T17:26:30.844Z,95447.27
2019-04-07T17:28:59.985Z,95455.27
2019-04-07T17:31:33.615Z,95458.52
2019-04-07T17:34:07.370Z,95460.19
2019-04-07T17:36:34.327Z,95460.84
2019-04-07T17:39:11.781Z,95463.95
2019-04-07T17:41:49.810Z,95457.70
2019-04-07T17:44:28.617Z,95463.52
2019-04-07T17:47:23.380Z,95460.05
2019-04-07T17:50:14.718Z,95465.58
2019-04-07T17:53:05.303Z,95460.73
2019-04-07T17:55:52.706Z,95460.23
2019-04-07T17:58:47.868Z,95462.35
2019-04-07T18:01:41.382Z,95464.44
2019-04-07T18:04:28.228Z,95472.03
2019-04-07T18:07:18.960Z,95476.47
2019-04-07T18:10:10.666Z,95482.60
2019-04-07T18:12:55.974Z,95480.95
2019-04-07T18:15:43.422Z,95480.97
2019-04-07T18:18:36.722Z,95488.07
2019-04-07T18:21:37.591Z,95493.09
2019-04-07T18:24:20.659Z,95496.48
2019-04-07T18:27:10.076Z,95500.27
2019-04-07T18:29:49.168Z,95505.09
2019-04-07T18:32:53.522Z,95508.20
2019-04-07T18:36:05.057Z,95517.11
2019-04-07T18:38:47.079Z,95519.05
2019-04-07T18:41:36.482Z,95521.11
2019-04-07T18:44:38.653Z,95530.52
2019-04-07T18:47:28.115Z,95538.61
2019-04-07T18:50:16.606Z,95531.57
2019-04-07T18:53:03.858Z,95539.08
2019-04-07T18:55:45.174Z,95540.66
2019-04-07T18:58:33.298Z,95544.28
2019-04-07T19:01:34.215Z,95548.88
2019-04-07T19:04:35.965Z,95544.23
2019-04-07T19:07:37.902Z,95556.80
2019-04-07T19:10:25.429Z,95556.00
2019-04-07T19:13:10.997Z,95553.65
2019-04-07T19:16:04.364Z,95548.76
2019-04-07T19:19:00.769Z,95554.91
2019-04-07T19:21:45.077Z,95557.06
2019-04-07T19:24:31.431Z,95563.54
2019-04-07T19:27:23.252Z,95557.05
2019-04-07T19:30:22.946Z,95559.23
2019-04-07T19:33:24.553Z,95558.95
2019-04-07T19:36:11.196Z,95557.97
2019-04-07T19:39:14.739Z,95565.20
2019-04-07T19:41:53.462Z,95564.63
2019-04-07T19:44:42.881Z,95569.81
2019-04-07T19:47:26.171Z,95567.52
2019-04-07T19:50:13.417Z,95565.30
2019-04-07T19:53:20.333Z,95565.96
2019-04-07T19:56:12.270Z,95366.69
2019-04-07T19:58:59.838Z,95571.09
2019-04-07T20:01:51.110Z,95562.83
2019-04-07T20:04:42.289Z,95573.54
2019-04-07T20:07:17.916Z,95577.99
2019-04-07T20:10:11.014Z,95574.06
2019-04-07T20:13:14.246Z,95574.47
2019-04-07T20:16:12.890Z,95575.94
2019-04-07T20:18:59.577Z,95573.32
2019-04-07T20:21:41.421Z,95577.52
2019-04-07T20:24:38.035Z,95579.36
2019-04-07T20:27:33.892Z,95568.27
2019-04-07T20:30:25.404Z,95571.78
2019-04-07T20:33:13.547Z,95578.45
2019-04-07T20:35:52.159Z,95570.20
2019-04-07T20:38:59.218Z,95573.59
2019-04-07T20:41:38.671Z,95569.55
2019-04-07T20:44:57.129Z,95572.38
2019-04-07T20:47:36.199Z,95570.03
2019-04-07T20:50:23.805Z,95574.61
2019-04-07T20:53:13.375Z,95579.12
2019-04-07T20:55:48.100Z,95588.47
2019-04-07T20:58:53.894Z,95583.72
2019-04-07T21:01:37.019Z,95590.30
2019-04-07T21:04:24.001Z,95594.02
2019-04-07T21:07:15.356Z,95594.07
2019-04-07T21:10:21.467Z,95598.52
2019-04-07T21:13:00.317Z,95599.66
2019-04-07T21:15:40.033Z,95602.48
2019-04-07T21:18:22.255Z,95603.83
2019-04-07T21:21:12.295Z,95566.38
2019-04-07T21:23:51.825Z,95607.89
2019-04-07T21:26:33.517Z,95606.13
2019-04-07T21:29:26.075Z,95607.17
2019-04-07T21:32:18.817Z,95613.05
2019-04-07T21:35:06.134Z,95609.59
2019-04-07T21:37:56.256Z,95612.84
2019-04-07T21:40:56.436Z,95612.88
2019-04-07T21:43:34.000Z,95608.48
2019-04-07T21:46:23.908Z,95611.18
2019-04-07T21:49:11.932Z,95607.45
2019-04-07T21:51:59.101Z,95607.55
2019-04-07T21:54:44.185Z,95611.91
2019-04-07T21:57:43.831Z,95607.59
2019-04-07T22:00:43.822Z,95611.37
2019-04-07T22:03:47.591Z,95619.25
2019-04-07T22:06:39.839Z,95620.69
2019-04-07T22:09:19.419Z,95626.72
2019-04-07T22:11:49.437Z,95616.19
2019-04-07T22:14:18.917Z,95618.20
2019-04-07T22:16:51.275Z,95605.92
2019-04-07T22:19:25.262Z,95614.60
2019-04-07T22:21:56.899Z,95614.31
2019-04-07T22:24:31.284Z,95619.31
2019-04-07T22:26:57.502Z,95616.50
2019-04-07T22:29:26.887Z,95618.63
2019-04-07T22:31:59.800Z,95626.77
2019-04-07T22:34:35.647Z,95626.54
2019-04-07T22:37:10.116Z,95629.41
2019-04-07T22:39:38.259Z,95628.19
2019-04-07T22:42:12.811Z,95633.05
2019-04-07T22:44:39.796Z,95631.07
2019-04-07T22:47:10.897Z,95626.95
2019-04-07T22:49:41.616Z,95637.16
2019-04-07T22:52:11.833Z,95635.53
2019-04-07T22:54:42.696Z,95641.27
2019-04-07T22:57:16.304Z,95643.77
2019-04-07T22:59:50.408Z,95641.80
2019-04-07T23:02:25.387Z,95642.45
2019-04-07T23:04:58.755Z,95638.09
2019-04-07T23:07:29.687Z,95648.28
2019-04-07T23:09:59.297Z,95656.42
2019-04-07T23:12:30.538Z,95652.27
2019-04-07T23:15:02.230Z,95656.73
2019-04-07T23:17:32.208Z,95656.32
2019-04-07T23:20:02.353Z,95662.81
2019-04-07T23:22:31.495Z,95394.72
2019-04-07T23:25:02.380Z,95659.83
2019-04-07T23:27:36.040Z,95663.44
2019-04-07T23:30:11.011Z,95666.09
2019-04-07T23:32:41.738Z,95667.67
2019-04-07T23:35:11.032Z,95665.54
2019-04-07T23:37:43.757Z,95664.32
2019-04-07T23:40:16.314Z,95672.53
2019-04-07T23:42:45.437Z,95671.11
2019-04-07T23:45:16.606Z,95672.27
2019-04-07T23:47:46.922Z,95675.38
2019-04-07T23:50:16.741Z,95672.23
2019-04-07T23:52:45.955Z,95675.43
2019-04-07T23:55:18.210Z,95680.63
2019-04-07T23:57:47.285Z,95678.75
